Tropical Cyclones
[Index]
Main Index Home Page Stock Weather Photos Extreme Storms Discussion Storm News and Storm Chasing Reports Tropical Cyclones / Hurricanes / Typhoons Weather Data and Links Wild Fires / Bushfires Weather Observation Techniques Weather Picture Catalogue Tornado Pictures and Reports Stock Video Footage and DVDs for sale
Season 2003-2004 Tropical Cyclone CELA Track Map
Season 2003-2004 Summaries: [BoM-AU] [JTWC-AU] [JTWC-SIO] [JTWC-SPAC] [JTWC-SH]
<<- Previous TC | JTWC 2003-2004 Season | Next TC ->>

click for intensity scale information  Lat/long Grid: Show Hide

 Date Labels: Show Hide

Joint Typhoon Warning Centre Cyclone Data

Name: CELA

04 Dec 2003 00:00 UTC to 21 Dec 2003 18:00 UTC

    date/time    lat    long     hPa   cat  kts
2003-12-04 00    9.3    64.6    1006         15          
2003-12-04 06   10.0    64.5    1006         15          
2003-12-04 12   10.7    64.3    1006         15          
2003-12-04 18   11.4    64.1    1006         15          
2003-12-05 00   11.9    63.5    1003         20          
2003-12-05 06   11.9    62.6    1002         25          
2003-12-05 12   11.6    61.9    1002         25          
2003-12-05 18   11.7    61.3    1000         30          
2003-12-06 00   11.8    60.8    1000         30          
2003-12-06 06   11.9    60.3    1000         30          
2003-12-06 12   12.2    59.8    1000         30          
2003-12-06 18   12.6    59.2    1000         30          
2003-12-07 00   12.9    58.6     997         35          
2003-12-07 06   13.1    57.9     997         35          
2003-12-07 12   13.4    57.4     997         35          
2003-12-07 18   13.6    56.7     997         35          
2003-12-08 00   13.7    55.8     994    1    40          
2003-12-08 06   13.5    54.9     991    1    45          
2003-12-08 12   13.4    54.0     991    1    45          
2003-12-08 18   13.3    53.2     991    1    45          
2003-12-09 00   13.2    52.3     991    1    45          
2003-12-09 06   13.2    51.4     987    1    45          
2003-12-09 12   13.2    50.7     994    1    40          
2003-12-09 18   13.2    49.8     997         35          
2003-12-10 00   13.3    48.5     997         35          
2003-12-10 06   14.0    47.0    1000         30          
2003-12-10 12   15.0    45.6    1002         25          
2003-12-10 18   15.3    44.7    1002         25          
2003-12-11 00   15.4    44.4     997         35          
2003-12-11 06   15.5    44.2     997         35          
2003-12-11 12   15.6    44.1     997         35          
2003-12-11 18   15.7    44.0     994    1    40          
2003-12-12 00   15.8    43.9     994    1    40          
2003-12-12 06   16.0    44.0     994    1    40          
2003-12-12 12   16.2    44.0     997         35          
2003-12-12 18   16.3    43.8     997         35          
2003-12-13 00   16.2    43.5     997         35          
2003-12-13 06   16.1    43.2     997         35          
2003-12-13 12   16.1    42.8     997         35          
2003-12-13 18   16.3    42.4     997         35          
2003-12-14 00   16.6    42.1     997         35          
2003-12-14 06   17.1    41.9     997         35          
2003-12-14 12   17.7    41.9     997         35          
2003-12-14 18   18.1    41.5     997         35          
2003-12-15 00   18.8    41.1     997         35          
2003-12-15 06   19.6    41.1     997         35          
2003-12-15 12   20.1    41.2     997         35          
2003-12-15 18   20.4    41.3     994    1    45          
2003-12-16 00   20.6    41.4     984    2    55          
2003-12-16 06   20.7    41.6     976    2    65          
2003-12-16 12   20.9    41.7     976    2    65          
2003-12-16 18   21.1    41.6     976    2    65          
2003-12-17 00   21.2    41.4     980    2    60          
2003-12-17 06   21.4    41.0     984    2    55          
2003-12-17 12   22.3    40.3     984    2    55          
2003-12-17 18   23.1    39.8     984    2    55          
2003-12-18 00   23.6    39.3     984    2    55          
2003-12-18 06   23.9    39.1     984    2    55          
2003-12-18 12   24.3    39.1     984    2    55          
2003-12-18 18   24.6    39.6     984    2    55          
2003-12-19 00   24.8    40.4     984    2    55          
2003-12-19 06   25.0    41.3     980    2    60          
2003-12-19 12   25.5    42.2     976    2    65          
2003-12-19 18   26.2    42.8     976    2    65          
2003-12-20 00   27.1    42.8     976    2    65          
2003-12-20 06   27.9    42.3     976    2    65          
2003-12-20 12   29.0    42.0     980    2    60          
2003-12-20 18   30.8    41.9     987    1    50          
2003-12-21 00   32.6    42.3     991    1    45          
2003-12-21 06   34.2    44.0     991    1    45          
2003-12-21 12   36.0    46.6     991    1    45          
2003-12-21 18   38.2    51.2     991    1    45          
Winds are 1-min average.

Tropical cyclone tracks developed by Michael Bath using data from the Joint Typhoon Warning Centre Best Tracks and Google Maps.


[Australian Severe Weather index] [Copyright Notice] [Email Contacts] [Search This Site] [Privacy Policy]
Document: tropical_cyclone_cela.htm Updated: 28 June 2017